sensor_id;sensor_type;location;lat;lon;timestamp;P1;durP1;ratioP1;P2;durP2;ratioP2
13571;SDS011;6857;53.484;10.216;2023-03-01T00:01:31;14.63;;;8.67;;
13571;SDS011;6857;53.484;10.216;2023-03-01T00:03:57;15.97;;;9.40;;
13571;SDS011;6857;53.484;10.216;2023-03-01T00:06:24;14.83;;;9.60;;
13571;SDS011;6857;53.484;10.216;2023-03-01T00:08:50;14.77;;;8.60;;
13571;SDS011;6857;53.484;10.216;2023-03-01T00:11:18;15.73;;;10.10;;
13571;SDS011;6857;53.484;10.216;2023-03-01T00:13:45;15.90;;;10.23;;
13571;SDS011;6857;53.484;10.216;2023-03-01T00:16:16;17.40;;;9.97;;
13571;SDS011;6857;53.484;10.216;2023-03-01T00:18:42;15.10;;;9.07;;
13571;SDS011;6857;53.484;10.216;2023-03-01T00:21:08;23.37;;;11.87;;
13571;SDS011;6857;53.484;10.216;2023-03-01T00:23:34;26.10;;;12.60;;
13571;SDS011;6857;53.484;10.216;2023-03-01T00:26:01;24.43;;;11.77;;
13571;SDS011;6857;53.484;10.216;2023-03-01T00:28:27;24.87;;;11.80;;
13571;SDS011;6857;53.484;10.216;2023-03-01T00:30:52;21.80;;;11.67;;
13571;SDS011;6857;53.484;10.216;2023-03-01T00:33:18;20.70;;;10.87;;
13571;SDS011;6857;53.484;10.216;2023-03-01T00:35:44;21.77;;;11.17;;
13571;SDS011;6857;53.484;10.216;2023-03-01T00:38:10;21.37;;;11.13;;
13571;SDS011;6857;53.484;10.216;2023-03-01T00:40:36;19.57;;;11.30;;
13571;SDS011;6857;53.484;10.216;2023-03-01T00:43:03;16.27;;;9.43;;
13571;SDS011;6857;53.484;10.216;2023-03-01T00:45:29;21.30;;;10.40;;
13571;SDS011;6857;53.484;10.216;2023-03-01T00:47:56;17.77;;;10.43;;
13571;SDS011;6857;53.484;10.216;2023-03-01T00:50:22;23.90;;;10.97;;
13571;SDS011;6857;53.484;10.216;2023-03-01T00:52:52;20.93;;;10.57;;
13571;SDS011;6857;53.484;10.216;2023-03-01T00:55:18;18.80;;;11.27;;
13571;SDS011;6857;53.484;10.216;2023-03-01T00:57:44;18.43;;;10.00;;
13571;SDS011;6857;53.484;10.216;2023-03-01T01:00:10;24.47;;;10.47;;
13571;SDS011;6857;53.484;10.216;2023-03-01T01:02:36;17.40;;;9.10;;
13571;SDS011;6857;53.484;10.216;2023-03-01T01:05:03;19.70;;;9.57;;
13571;SDS011;6857;53.484;10.216;2023-03-01T01:07:29;17.20;;;9.93;;
13571;SDS011;6857;53.484;10.216;2023-03-01T01:09:55;21.33;;;10.57;;
13571;SDS011;6857;53.484;10.216;2023-03-01T01:12:21;22.40;;;11.67;;
13571;SDS011;6857;53.484;10.216;2023-03-01T01:14:47;20.30;;;11.03;;
13571;SDS011;6857;53.484;10.216;2023-03-01T01:17:13;22.30;;;9.40;;
13571;SDS011;6857;53.484;10.216;2023-03-01T01:19:39;18.57;;;10.33;;
13571;SDS011;6857;53.484;10.216;2023-03-01T01:22:05;20.27;;;10.03;;
13571;SDS011;6857;53.484;10.216;2023-03-01T01:24:31;20.67;;;10.37;;
13571;SDS011;6857;53.484;10.216;2023-03-01T01:26:57;20.40;;;10.47;;
13571;SDS011;6857;53.484;10.216;2023-03-01T01:29:23;21.43;;;9.57;;
13571;SDS011;6857;53.484;10.216;2023-03-01T01:31:49;20.77;;;10.07;;
13571;SDS011;6857;53.484;10.216;2023-03-01T01:34:16;19.73;;;10.63;;
13571;SDS011;6857;53.484;10.216;2023-03-01T01:36:43;17.73;;;9.60;;
13571;SDS011;6857;53.484;10.216;2023-03-01T01:39:09;18.73;;;10.63;;
13571;SDS011;6857;53.484;10.216;2023-03-01T01:41:38;17.53;;;9.57;;
13571;SDS011;6857;53.484;10.216;2023-03-01T01:46:47;17.87;;;10.27;;
13571;SDS011;6857;53.484;10.216;2023-03-01T01:49:29;14.90;;;8.83;;
13571;SDS011;6857;53.484;10.216;2023-03-01T01:52:02;16.27;;;10.03;;
13571;SDS011;6857;53.484;10.216;2023-03-01T01:54:38;14.23;;;9.50;;
13571;SDS011;6857;53.484;10.216;2023-03-01T01:57:07;14.87;;;8.47;;
13571;SDS011;6857;53.484;10.216;2023-03-01T01:59:34;13.13;;;7.77;;
13571;SDS011;6857;53.484;10.216;2023-03-01T02:02:02;11.70;;;8.30;;
13571;SDS011;6857;53.484;10.216;2023-03-01T02:04:28;11.60;;;8.27;;
13571;SDS011;6857;53.484;10.216;2023-03-01T02:07:01;17.60;;;8.43;;
13571;SDS011;6857;53.484;10.216;2023-03-01T02:09:29;14.70;;;8.90;;
13571;SDS011;6857;53.484;10.216;2023-03-01T02:11:56;14.63;;;8.17;;
13571;SDS011;6857;53.484;10.216;2023-03-01T02:14:22;13.27;;;8.03;;
13571;SDS011;6857;53.484;10.216;2023-03-01T02:16:48;10.80;;;7.50;;
13571;SDS011;6857;53.484;10.216;2023-03-01T02:24:37;16.00;;;7.93;;
13571;SDS011;6857;53.484;10.216;2023-03-01T02:27:04;13.97;;;8.57;;
13571;SDS011;6857;53.484;10.216;2023-03-01T02:29:30;12.73;;;8.47;;
13571;SDS011;6857;53.484;10.216;2023-03-01T02:31:56;12.77;;;8.20;;
13571;SDS011;6857;53.484;10.216;2023-03-01T02:34:24;14.87;;;7.47;;
13571;SDS011;6857;53.484;10.216;2023-03-01T02:36:51;13.13;;;7.93;;
13571;SDS011;6857;53.484;10.216;2023-03-01T02:39:19;12.17;;;6.73;;
13571;SDS011;6857;53.484;10.216;2023-03-01T02:41:48;17.07;;;7.70;;
13571;SDS011;6857;53.484;10.216;2023-03-01T02:44:15;11.23;;;6.80;;
13571;SDS011;6857;53.484;10.216;2023-03-01T02:46:43;13.83;;;7.20;;
13571;SDS011;6857;53.484;10.216;2023-03-01T02:49:26;14.27;;;7.27;;
13571;SDS011;6857;53.484;10.216;2023-03-01T02:52:07;10.63;;;6.60;;
13571;SDS011;6857;53.484;10.216;2023-03-01T02:54:39;8.70;;;6.07;;
13571;SDS011;6857;53.484;10.216;2023-03-01T02:57:05;9.57;;;6.67;;
13571;SDS011;6857;53.484;10.216;2023-03-01T02:59:32;12.40;;;7.33;;
13571;SDS011;6857;53.484;10.216;2023-03-01T03:02:04;10.67;;;6.67;;
13571;SDS011;6857;53.484;10.216;2023-03-01T03:04:30;12.13;;;6.97;;
13571;SDS011;6857;53.484;10.216;2023-03-01T03:06:56;11.17;;;6.73;;
13571;SDS011;6857;53.484;10.216;2023-03-01T03:09:22;9.40;;;6.50;;
13571;SDS011;6857;53.484;10.216;2023-03-01T03:11:48;8.57;;;5.73;;
13571;SDS011;6857;53.484;10.216;2023-03-01T03:14:15;9.17;;;5.80;;
13571;SDS011;6857;53.484;10.216;2023-03-01T03:16:41;9.93;;;6.20;;
13571;SDS011;6857;53.484;10.216;2023-03-01T03:19:07;10.40;;;6.40;;
13571;SDS011;6857;53.484;10.216;2023-03-01T03:21:34;11.70;;;6.73;;
13571;SDS011;6857;53.484;10.216;2023-03-01T03:24:00;11.90;;;6.30;;
13571;SDS011;6857;53.484;10.216;2023-03-01T03:26:26;9.23;;;6.07;;
13571;SDS011;6857;53.484;10.216;2023-03-01T03:28:52;8.70;;;6.50;;
13571;SDS011;6857;53.484;10.216;2023-03-01T03:31:18;10.57;;;6.10;;
13571;SDS011;6857;53.484;10.216;2023-03-01T03:33:44;9.40;;;6.23;;
13571;SDS011;6857;53.484;10.216;2023-03-01T03:36:14;13.33;;;6.70;;
13571;SDS011;6857;53.484;10.216;2023-03-01T03:38:42;10.60;;;6.30;;
13571;SDS011;6857;53.484;10.216;2023-03-01T03:41:08;10.13;;;6.60;;
13571;SDS011;6857;53.484;10.216;2023-03-01T03:43:35;10.23;;;6.60;;
13571;SDS011;6857;53.484;10.216;2023-03-01T03:46:01;11.73;;;6.27;;
13571;SDS011;6857;53.484;10.216;2023-03-01T03:48:32;11.43;;;6.07;;
13571;SDS011;6857;53.484;10.216;2023-03-01T03:50:58;10.30;;;6.10;;
13571;SDS011;6857;53.484;10.216;2023-03-01T03:53:25;10.80;;;6.43;;
13571;SDS011;6857;53.484;10.216;2023-03-01T03:55:52;9.70;;;6.90;;
13571;SDS011;6857;53.484;10.216;2023-03-01T03:58:18;9.97;;;6.73;;
13571;SDS011;6857;53.484;10.216;2023-03-01T04:00:45;10.30;;;7.03;;
13571;SDS011;6857;53.484;10.216;2023-03-01T04:03:12;9.27;;;6.63;;
13571;SDS011;6857;53.484;10.216;2023-03-01T04:05:39;12.70;;;7.17;;
13571;SDS011;6857;53.484;10.216;2023-03-01T04:08:05;10.43;;;6.93;;
13571;SDS011;6857;53.484;10.216;2023-03-01T04:13:01;10.93;;;6.80;;
13571;SDS011;6857;53.484;10.216;2023-03-01T04:15:27;9.37;;;6.60;;
13571;SDS011;6857;53.484;10.216;2023-03-01T04:17:53;11.93;;;7.40;;
13571;SDS011;6857;53.484;10.216;2023-03-01T04:20:20;10.90;;;7.23;;
13571;SDS011;6857;53.484;10.216;2023-03-01T04:22:50;11.63;;;7.37;;
13571;SDS011;6857;53.484;10.216;2023-03-01T04:25:16;11.20;;;7.47;;
13571;SDS011;6857;53.484;10.216;2023-03-01T04:27:42;9.57;;;6.87;;
13571;SDS011;6857;53.484;10.216;2023-03-01T04:30:09;10.63;;;6.63;;
13571;SDS011;6857;53.484;10.216;2023-03-01T04:32:35;12.13;;;7.27;;
13571;SDS011;6857;53.484;10.216;2023-03-01T04:35:01;11.80;;;7.10;;
13571;SDS011;6857;53.484;10.216;2023-03-01T04:37:27;14.00;;;7.27;;
13571;SDS011;6857;53.484;10.216;2023-03-01T04:39:53;11.33;;;6.93;;
13571;SDS011;6857;53.484;10.216;2023-03-01T04:42:19;14.30;;;7.77;;
13571;SDS011;6857;53.484;10.216;2023-03-01T04:44:45;12.10;;;7.43;;
13571;SDS011;6857;53.484;10.216;2023-03-01T04:47:11;10.27;;;6.40;;
13571;SDS011;6857;53.484;10.216;2023-03-01T04:49:37;10.43;;;6.53;;
13571;SDS011;6857;53.484;10.216;2023-03-01T04:52:03;8.40;;;6.23;;
13571;SDS011;6857;53.484;10.216;2023-03-01T04:54:29;12.50;;;7.10;;
13571;SDS011;6857;53.484;10.216;2023-03-01T04:56:56;10.23;;;6.60;;
13571;SDS011;6857;53.484;10.216;2023-03-01T04:59:22;14.33;;;6.87;;
13571;SDS011;6857;53.484;10.216;2023-03-01T05:01:48;9.57;;;6.30;;
13571;SDS011;6857;53.484;10.216;2023-03-01T05:04:14;10.73;;;6.50;;
13571;SDS011;6857;53.484;10.216;2023-03-01T05:06:40;9.03;;;6.03;;
13571;SDS011;6857;53.484;10.216;2023-03-01T05:09:06;11.10;;;6.67;;
13571;SDS011;6857;53.484;10.216;2023-03-01T05:11:32;9.50;;;6.67;;
13571;SDS011;6857;53.484;10.216;2023-03-01T05:14:01;11.20;;;6.47;;
13571;SDS011;6857;53.484;10.216;2023-03-01T05:16:27;11.03;;;6.60;;
13571;SDS011;6857;53.484;10.216;2023-03-01T05:18:53;9.97;;;6.70;;
13571;SDS011;6857;53.484;10.216;2023-03-01T05:21:20;12.10;;;7.07;;
13571;SDS011;6857;53.484;10.216;2023-03-01T05:23:46;12.13;;;6.60;;
13571;SDS011;6857;53.484;10.216;2023-03-01T05:26:13;10.73;;;6.30;;
13571;SDS011;6857;53.484;10.216;2023-03-01T05:28:39;9.27;;;6.63;;
13571;SDS011;6857;53.484;10.216;2023-03-01T05:31:05;11.60;;;6.73;;
13571;SDS011;6857;53.484;10.216;2023-03-01T05:33:37;14.87;;;6.53;;
13571;SDS011;6857;53.484;10.216;2023-03-01T05:36:04;11.63;;;5.83;;
13571;SDS011;6857;53.484;10.216;2023-03-01T05:38:30;12.00;;;7.27;;
13571;SDS011;6857;53.484;10.216;2023-03-01T05:40:56;10.70;;;7.07;;
13571;SDS011;6857;53.484;10.216;2023-03-01T05:43:22;8.03;;;6.50;;
13571;SDS011;6857;53.484;10.216;2023-03-01T05:45:48;11.53;;;6.90;;
13571;SDS011;6857;53.484;10.216;2023-03-01T05:48:14;12.83;;;7.13;;
13571;SDS011;6857;53.484;10.216;2023-03-01T05:50:43;11.33;;;7.53;;
13571;SDS011;6857;53.484;10.216;2023-03-01T05:53:19;9.87;;;7.10;;
13571;SDS011;6857;53.484;10.216;2023-03-01T05:55:48;12.07;;;7.10;;
13571;SDS011;6857;53.484;10.216;2023-03-01T05:58:15;11.30;;;6.57;;
13571;SDS011;6857;53.484;10.216;2023-03-01T06:00:42;9.70;;;6.57;;
13571;SDS011;6857;53.484;10.216;2023-03-01T06:03:09;13.17;;;7.90;;
13571;SDS011;6857;53.484;10.216;2023-03-01T06:05:36;14.27;;;8.00;;
13571;SDS011;6857;53.484;10.216;2023-03-01T06:08:02;11.67;;;7.43;;
13571;SDS011;6857;53.484;10.216;2023-03-01T06:10:28;13.07;;;7.07;;
13571;SDS011;6857;53.484;10.216;2023-03-01T06:12:54;16.13;;;9.20;;
13571;SDS011;6857;53.484;10.216;2023-03-01T06:15:20;15.27;;;9.50;;
13571;SDS011;6857;53.484;10.216;2023-03-01T06:17:47;11.73;;;7.73;;
13571;SDS011;6857;53.484;10.216;2023-03-01T06:20:15;12.20;;;7.70;;
13571;SDS011;6857;53.484;10.216;2023-03-01T06:22:41;10.13;;;6.73;;
13571;SDS011;6857;53.484;10.216;2023-03-01T06:25:08;10.17;;;6.83;;
13571;SDS011;6857;53.484;10.216;2023-03-01T06:27:34;8.60;;;6.70;;
13571;SDS011;6857;53.484;10.216;2023-03-01T06:30:00;14.30;;;6.93;;
13571;SDS011;6857;53.484;10.216;2023-03-01T06:32:26;13.63;;;6.50;;
13571;SDS011;6857;53.484;10.216;2023-03-01T06:34:52;12.00;;;9.23;;
13571;SDS011;6857;53.484;10.216;2023-03-01T06:37:18;12.93;;;7.10;;
13571;SDS011;6857;53.484;10.216;2023-03-01T06:39:44;11.60;;;6.83;;
13571;SDS011;6857;53.484;10.216;2023-03-01T06:42:10;10.73;;;6.70;;
13571;SDS011;6857;53.484;10.216;2023-03-01T06:44:36;9.93;;;6.80;;
13571;SDS011;6857;53.484;10.216;2023-03-01T06:47:03;12.17;;;7.53;;
13571;SDS011;6857;53.484;10.216;2023-03-01T06:49:29;14.40;;;9.07;;
13571;SDS011;6857;53.484;10.216;2023-03-01T06:51:55;13.30;;;7.40;;
13571;SDS011;6857;53.484;10.216;2023-03-01T06:54:21;10.37;;;6.87;;
13571;SDS011;6857;53.484;10.216;2023-03-01T06:56:47;10.70;;;7.40;;
13571;SDS011;6857;53.484;10.216;2023-03-01T06:59:13;10.23;;;6.77;;
13571;SDS011;6857;53.484;10.216;2023-03-01T07:01:39;16.80;;;8.73;;
13571;SDS011;6857;53.484;10.216;2023-03-01T07:04:05;11.67;;;7.90;;
13571;SDS011;6857;53.484;10.216;2023-03-01T07:06:31;18.50;;;10.57;;
13571;SDS011;6857;53.484;10.216;2023-03-01T07:08:57;13.73;;;7.30;;
13571;SDS011;6857;53.484;10.216;2023-03-01T07:11:23;15.00;;;8.90;;
13571;SDS011;6857;53.484;10.216;2023-03-01T07:13:49;16.70;;;8.53;;
13571;SDS011;6857;53.484;10.216;2023-03-01T07:16:15;13.17;;;7.77;;
13571;SDS011;6857;53.484;10.216;2023-03-01T07:18:41;11.60;;;8.97;;
13571;SDS011;6857;53.484;10.216;2023-03-01T07:21:08;15.13;;;8.07;;
13571;SDS011;6857;53.484;10.216;2023-03-01T07:23:34;17.47;;;8.70;;
13571;SDS011;6857;53.484;10.216;2023-03-01T07:26:01;18.50;;;8.30;;
13571;SDS011;6857;53.484;10.216;2023-03-01T07:28:27;18.67;;;7.53;;
13571;SDS011;6857;53.484;10.216;2023-03-01T07:30:54;11.93;;;8.20;;
13571;SDS011;6857;53.484;10.216;2023-03-01T07:33:20;13.43;;;8.17;;
13571;SDS011;6857;53.484;10.216;2023-03-01T07:35:46;19.90;;;8.03;;
13571;SDS011;6857;53.484;10.216;2023-03-01T07:38:12;19.90;;;8.83;;
13571;SDS011;6857;53.484;10.216;2023-03-01T07:40:38;17.67;;;8.70;;
13571;SDS011;6857;53.484;10.216;2023-03-01T07:43:03;21.87;;;11.73;;
13571;SDS011;6857;53.484;10.216;2023-03-01T07:45:29;10.13;;;6.53;;
13571;SDS011;6857;53.484;10.216;2023-03-01T07:47:55;10.43;;;6.40;;
13571;SDS011;6857;53.484;10.216;2023-03-01T07:50:22;10.97;;;7.07;;
13571;SDS011;6857;53.484;10.216;2023-03-01T07:52:49;13.33;;;7.77;;
13571;SDS011;6857;53.484;10.216;2023-03-01T07:55:15;9.57;;;7.20;;
13571;SDS011;6857;53.484;10.216;2023-03-01T07:57:41;14.37;;;6.83;;
13571;SDS011;6857;53.484;10.216;2023-03-01T08:00:09;10.17;;;6.63;;
13571;SDS011;6857;53.484;10.216;2023-03-01T08:02:35;12.57;;;7.13;;
13571;SDS011;6857;53.484;10.216;2023-03-01T08:05:01;11.60;;;7.23;;
13571;SDS011;6857;53.484;10.216;2023-03-01T08:07:27;8.80;;;6.40;;
13571;SDS011;6857;53.484;10.216;2023-03-01T08:09:53;14.33;;;7.00;;
13571;SDS011;6857;53.484;10.216;2023-03-01T08:12:19;14.33;;;6.97;;
13571;SDS011;6857;53.484;10.216;2023-03-01T08:14:45;10.23;;;6.83;;
13571;SDS011;6857;53.484;10.216;2023-03-01T08:17:13;10.90;;;7.53;;
13571;SDS011;6857;53.484;10.216;2023-03-01T08:19:39;12.60;;;7.17;;
13571;SDS011;6857;53.484;10.216;2023-03-01T08:22:05;10.10;;;6.83;;
13571;SDS011;6857;53.484;10.216;2023-03-01T08:24:32;12.40;;;7.37;;
13571;SDS011;6857;53.484;10.216;2023-03-01T08:26:58;11.83;;;7.87;;
13571;SDS011;6857;53.484;10.216;2023-03-01T08:29:24;10.10;;;6.83;;
13571;SDS011;6857;53.484;10.216;2023-03-01T08:31:50;11.70;;;6.90;;
13571;SDS011;6857;53.484;10.216;2023-03-01T08:34:17;9.77;;;6.70;;
13571;SDS011;6857;53.484;10.216;2023-03-01T08:36:44;11.60;;;7.83;;
13571;SDS011;6857;53.484;10.216;2023-03-01T08:39:12;13.43;;;8.13;;
13571;SDS011;6857;53.484;10.216;2023-03-01T08:41:38;11.47;;;7.20;;
13571;SDS011;6857;53.484;10.216;2023-03-01T08:44:05;14.93;;;8.87;;
13571;SDS011;6857;53.484;10.216;2023-03-01T08:46:35;13.50;;;8.00;;
13571;SDS011;6857;53.484;10.216;2023-03-01T08:49:05;11.13;;;6.67;;
13571;SDS011;6857;53.484;10.216;2023-03-01T08:51:32;12.03;;;7.83;;
13571;SDS011;6857;53.484;10.216;2023-03-01T08:54:01;15.07;;;7.27;;
13571;SDS011;6857;53.484;10.216;2023-03-01T08:56:27;12.17;;;7.17;;
13571;SDS011;6857;53.484;10.216;2023-03-01T08:58:53;14.33;;;7.37;;
13571;SDS011;6857;53.484;10.216;2023-03-01T09:01:19;15.53;;;8.63;;
13571;SDS011;6857;53.484;10.216;2023-03-01T09:03:45;14.73;;;7.00;;
13571;SDS011;6857;53.484;10.216;2023-03-01T09:06:12;22.67;;;9.43;;
13571;SDS011;6857;53.484;10.216;2023-03-01T09:08:42;16.03;;;9.33;;
13571;SDS011;6857;53.484;10.216;2023-03-01T09:11:09;9.37;;;6.53;;
13571;SDS011;6857;53.484;10.216;2023-03-01T09:13:35;18.50;;;7.47;;
13571;SDS011;6857;53.484;10.216;2023-03-01T09:16:02;11.50;;;7.10;;
13571;SDS011;6857;53.484;10.216;2023-03-01T09:18:28;15.03;;;8.37;;
13571;SDS011;6857;53.484;10.216;2023-03-01T09:21:11;16.43;;;7.47;;
13571;SDS011;6857;53.484;10.216;2023-03-01T09:23:38;12.50;;;8.03;;
13571;SDS011;6857;53.484;10.216;2023-03-01T09:26:14;13.17;;;7.47;;
13571;SDS011;6857;53.484;10.216;2023-03-01T09:28:47;11.57;;;6.43;;
13571;SDS011;6857;53.484;10.216;2023-03-01T09:31:14;12.23;;;7.37;;
13571;SDS011;6857;53.484;10.216;2023-03-01T09:33:41;14.27;;;7.73;;
13571;SDS011;6857;53.484;10.216;2023-03-01T09:36:17;13.13;;;6.97;;
13571;SDS011;6857;53.484;10.216;2023-03-01T09:38:44;11.17;;;7.33;;
13571;SDS011;6857;53.484;10.216;2023-03-01T09:41:17;12.57;;;6.67;;
13571;SDS011;6857;53.484;10.216;2023-03-01T09:43:48;10.50;;;6.50;;
13571;SDS011;6857;53.484;10.216;2023-03-01T09:46:20;14.50;;;7.57;;
13571;SDS011;6857;53.484;10.216;2023-03-01T09:48:49;12.27;;;8.17;;
13571;SDS011;6857;53.484;10.216;2023-03-01T09:51:21;14.23;;;8.57;;
13571;SDS011;6857;53.484;10.216;2023-03-01T09:53:48;15.63;;;9.13;;
13571;SDS011;6857;53.484;10.216;2023-03-01T10:06:25;14.60;;;9.00;;
13571;SDS011;6857;53.484;10.216;2023-03-01T10:09:05;11.00;;;8.43;;
13571;SDS011;6857;53.484;10.216;2023-03-01T10:11:41;11.87;;;8.17;;
13571;SDS011;6857;53.484;10.216;2023-03-01T10:16:48;13.33;;;8.73;;
13571;SDS011;6857;53.484;10.216;2023-03-01T10:19:20;17.10;;;9.50;;
13571;SDS011;6857;53.484;10.216;2023-03-01T10:21:48;14.33;;;9.20;;
13571;SDS011;6857;53.484;10.216;2023-03-01T10:24:16;12.57;;;8.90;;
13571;SDS011;6857;53.484;10.216;2023-03-01T10:29:17;14.53;;;9.57;;
13571;SDS011;6857;53.484;10.216;2023-03-01T10:34:11;14.43;;;9.27;;
13571;SDS011;6857;53.484;10.216;2023-03-01T10:36:37;11.57;;;8.33;;
13571;SDS011;6857;53.484;10.216;2023-03-01T10:39:10;18.47;;;9.20;;
13571;SDS011;6857;53.484;10.216;2023-03-01T10:41:40;13.33;;;7.50;;
13571;SDS011;6857;53.484;10.216;2023-03-01T10:44:10;13.70;;;7.57;;
13571;SDS011;6857;53.484;10.216;2023-03-01T10:46:59;15.40;;;8.60;;
13571;SDS011;6857;53.484;10.216;2023-03-01T10:49:29;11.17;;;7.50;;
13571;SDS011;6857;53.484;10.216;2023-03-01T10:51:55;10.40;;;7.50;;
13571;SDS011;6857;53.484;10.216;2023-03-01T10:54:31;11.20;;;7.90;;
13571;SDS011;6857;53.484;10.216;2023-03-01T10:56:59;14.50;;;9.90;;
13571;SDS011;6857;53.484;10.216;2023-03-01T10:59:27;13.63;;;8.87;;
13571;SDS011;6857;53.484;10.216;2023-03-01T11:04:38;14.60;;;9.83;;
13571;SDS011;6857;53.484;10.216;2023-03-01T11:07:04;15.37;;;9.73;;
13571;SDS011;6857;53.484;10.216;2023-03-01T11:09:31;13.87;;;9.70;;
13571;SDS011;6857;53.484;10.216;2023-03-01T11:12:03;13.60;;;8.83;;
13571;SDS011;6857;53.484;10.216;2023-03-01T11:14:33;9.50;;;7.50;;
13571;SDS011;6857;53.484;10.216;2023-03-01T11:17:02;12.50;;;8.47;;
13571;SDS011;6857;53.484;10.216;2023-03-01T11:19:29;10.50;;;7.90;;
13571;SDS011;6857;53.484;10.216;2023-03-01T11:22:03;12.93;;;8.83;;
13571;SDS011;6857;53.484;10.216;2023-03-01T11:24:42;11.40;;;7.93;;
13571;SDS011;6857;53.484;10.216;2023-03-01T11:27:19;11.10;;;8.23;;
13571;SDS011;6857;53.484;10.216;2023-03-01T11:29:55;9.53;;;6.60;;
13571;SDS011;6857;53.484;10.216;2023-03-01T11:32:24;9.20;;;7.10;;
13571;SDS011;6857;53.484;10.216;2023-03-01T11:34:53;10.43;;;7.07;;
13571;SDS011;6857;53.484;10.216;2023-03-01T11:39:53;11.03;;;7.00;;
13571;SDS011;6857;53.484;10.216;2023-03-01T11:42:22;9.40;;;6.87;;
13571;SDS011;6857;53.484;10.216;2023-03-01T11:44:52;10.47;;;7.10;;
13571;SDS011;6857;53.484;10.216;2023-03-01T11:52:44;8.13;;;6.33;;
13571;SDS011;6857;53.484;10.216;2023-03-01T11:57:55;10.57;;;7.57;;
13571;SDS011;6857;53.484;10.216;2023-03-01T12:08:20;11.47;;;8.17;;
13571;SDS011;6857;53.484;10.216;2023-03-01T12:13:23;12.10;;;7.90;;
13571;SDS011;6857;53.484;10.216;2023-03-01T12:18:29;11.27;;;8.33;;
13571;SDS011;6857;53.484;10.216;2023-03-01T12:23:50;11.53;;;7.37;;
13571;SDS011;6857;53.484;10.216;2023-03-01T12:26:54;12.20;;;8.13;;
13571;SDS011;6857;53.484;10.216;2023-03-01T12:32:16;12.60;;;8.20;;
13571;SDS011;6857;53.484;10.216;2023-03-01T12:40:03;10.67;;;8.23;;
13571;SDS011;6857;53.484;10.216;2023-03-01T12:47:58;11.40;;;8.00;;
13571;SDS011;6857;53.484;10.216;2023-03-01T12:50:29;12.63;;;8.40;;
13571;SDS011;6857;53.484;10.216;2023-03-01T12:52:58;12.33;;;8.20;;
13571;SDS011;6857;53.484;10.216;2023-03-01T12:55:34;12.10;;;7.60;;
13571;SDS011;6857;53.484;10.216;2023-03-01T12:58:06;10.90;;;7.70;;
13571;SDS011;6857;53.484;10.216;2023-03-01T13:00:45;10.43;;;7.60;;
13571;SDS011;6857;53.484;10.216;2023-03-01T13:10:57;10.57;;;7.40;;
13571;SDS011;6857;53.484;10.216;2023-03-01T13:13:25;11.03;;;7.67;;
13571;SDS011;6857;53.484;10.216;2023-03-01T13:15:51;9.03;;;6.80;;
13571;SDS011;6857;53.484;10.216;2023-03-01T13:20:50;10.40;;;6.40;;
13571;SDS011;6857;53.484;10.216;2023-03-01T13:26:02;9.57;;;7.00;;
13571;SDS011;6857;53.484;10.216;2023-03-01T13:31:02;7.17;;;5.50;;
13571;SDS011;6857;53.484;10.216;2023-03-01T13:35:54;7.53;;;5.40;;
13571;SDS011;6857;53.484;10.216;2023-03-01T13:41:06;10.43;;;5.73;;
13571;SDS011;6857;53.484;10.216;2023-03-01T13:43:34;8.07;;;5.00;;
13571;SDS011;6857;53.484;10.216;2023-03-01T13:46:01;5.63;;;4.30;;
13571;SDS011;6857;53.484;10.216;2023-03-01T13:48:29;6.60;;;4.67;;
13571;SDS011;6857;53.484;10.216;2023-03-01T13:51:00;7.37;;;4.57;;
13571;SDS011;6857;53.484;10.216;2023-03-01T13:53:27;5.97;;;4.67;;
13571;SDS011;6857;53.484;10.216;2023-03-01T13:55:55;8.30;;;4.70;;
13571;SDS011;6857;53.484;10.216;2023-03-01T13:58:23;7.97;;;4.90;;
13571;SDS011;6857;53.484;10.216;2023-03-01T14:03:22;7.13;;;5.00;;
13571;SDS011;6857;53.484;10.216;2023-03-01T14:08:31;5.40;;;4.10;;
13571;SDS011;6857;53.484;10.216;2023-03-01T14:11:00;6.07;;;4.07;;
13571;SDS011;6857;53.484;10.216;2023-03-01T14:16:09;8.63;;;5.30;;
13571;SDS011;6857;53.484;10.216;2023-03-01T14:18:39;7.93;;;5.70;;
13571;SDS011;6857;53.484;10.216;2023-03-01T14:21:08;9.13;;;5.20;;
13571;SDS011;6857;53.484;10.216;2023-03-01T14:23:34;6.37;;;5.47;;
13571;SDS011;6857;53.484;10.216;2023-03-01T14:26:01;8.27;;;4.87;;
13571;SDS011;6857;53.484;10.216;2023-03-01T14:28:28;8.03;;;5.97;;
13571;SDS011;6857;53.484;10.216;2023-03-01T14:30:58;7.37;;;5.07;;
13571;SDS011;6857;53.484;10.216;2023-03-01T14:33:25;5.83;;;5.00;;
13571;SDS011;6857;53.484;10.216;2023-03-01T14:36:10;9.90;;;5.90;;
13571;SDS011;6857;53.484;10.216;2023-03-01T14:38:40;6.67;;;4.67;;
13571;SDS011;6857;53.484;10.216;2023-03-01T14:41:10;6.00;;;4.87;;
13571;SDS011;6857;53.484;10.216;2023-03-01T14:43:38;6.57;;;4.80;;
13571;SDS011;6857;53.484;10.216;2023-03-01T14:46:05;5.67;;;4.67;;
13571;SDS011;6857;53.484;10.216;2023-03-01T14:48:31;6.80;;;4.90;;
13571;SDS011;6857;53.484;10.216;2023-03-01T14:50:58;7.33;;;5.20;;
13571;SDS011;6857;53.484;10.216;2023-03-01T14:53:25;5.00;;;4.40;;
13571;SDS011;6857;53.484;10.216;2023-03-01T14:55:56;6.67;;;5.03;;
13571;SDS011;6857;53.484;10.216;2023-03-01T14:58:24;7.50;;;5.03;;
13571;SDS011;6857;53.484;10.216;2023-03-01T15:00:56;6.87;;;4.70;;
13571;SDS011;6857;53.484;10.216;2023-03-01T15:03:36;7.40;;;5.17;;
13571;SDS011;6857;53.484;10.216;2023-03-01T15:06:03;6.73;;;4.73;;
13571;SDS011;6857;53.484;10.216;2023-03-01T15:08:29;7.80;;;5.10;;
13571;SDS011;6857;53.484;10.216;2023-03-01T15:11:17;7.53;;;4.70;;
13571;SDS011;6857;53.484;10.216;2023-03-01T15:13:45;8.07;;;4.83;;
13571;SDS011;6857;53.484;10.216;2023-03-01T15:16:24;6.87;;;5.40;;
13571;SDS011;6857;53.484;10.216;2023-03-01T15:23:47;8.60;;;5.27;;
13571;SDS011;6857;53.484;10.216;2023-03-01T15:26:24;6.27;;;4.57;;
13571;SDS011;6857;53.484;10.216;2023-03-01T15:28:51;6.10;;;4.57;;
13571;SDS011;6857;53.484;10.216;2023-03-01T15:31:24;5.07;;;4.50;;
13571;SDS011;6857;53.484;10.216;2023-03-01T15:33:51;7.00;;;4.50;;
13571;SDS011;6857;53.484;10.216;2023-03-01T15:38:56;6.53;;;4.07;;
13571;SDS011;6857;53.484;10.216;2023-03-01T15:43:52;5.93;;;4.73;;
13571;SDS011;6857;53.484;10.216;2023-03-01T15:48:54;7.17;;;3.87;;
13571;SDS011;6857;53.484;10.216;2023-03-01T15:51:34;4.37;;;3.67;;
13571;SDS011;6857;53.484;10.216;2023-03-01T15:54:03;6.97;;;4.13;;
13571;SDS011;6857;53.484;10.216;2023-03-01T15:56:29;5.07;;;3.80;;
13571;SDS011;6857;53.484;10.216;2023-03-01T15:58:58;4.67;;;3.73;;
13571;SDS011;6857;53.484;10.216;2023-03-01T16:01:25;6.03;;;3.47;;
13571;SDS011;6857;53.484;10.216;2023-03-01T16:03:51;7.87;;;4.87;;
13571;SDS011;6857;53.484;10.216;2023-03-01T16:06:18;6.07;;;3.50;;
13571;SDS011;6857;53.484;10.216;2023-03-01T16:08:44;5.77;;;3.60;;
13571;SDS011;6857;53.484;10.216;2023-03-01T16:11:13;4.27;;;3.30;;
13571;SDS011;6857;53.484;10.216;2023-03-01T16:13:39;7.70;;;4.20;;
13571;SDS011;6857;53.484;10.216;2023-03-01T16:16:05;5.30;;;3.90;;
13571;SDS011;6857;53.484;10.216;2023-03-01T16:18:32;5.83;;;3.60;;
13571;SDS011;6857;53.484;10.216;2023-03-01T16:20:58;7.03;;;4.80;;
13571;SDS011;6857;53.484;10.216;2023-03-01T16:23:24;7.27;;;4.70;;
13571;SDS011;6857;53.484;10.216;2023-03-01T16:25:50;5.50;;;3.90;;
13571;SDS011;6857;53.484;10.216;2023-03-01T16:28:16;5.73;;;4.27;;
13571;SDS011;6857;53.484;10.216;2023-03-01T16:30:45;8.40;;;5.63;;
13571;SDS011;6857;53.484;10.216;2023-03-01T16:33:12;5.40;;;3.97;;